Terminal Aerodrome Forecast
Issued by NWS Jackson, KY

Home | Current Version | Previous Version | Text Only | Print | Product List | Glossary On
Versions: 1 2 3 4 5 6 7 8 9 10 11 12 13 14 15 16 17 18
577
FTUS43 KJKL 211741
TAFJKL
TAF
KJKL 211741Z 2118/2218 29006KT P6SM VCSH SCT025 BKN045
     FM212300 30005KT P6SM VCSH OVC025
     FM220200 31005KT P6SM VCSH OVC045
     FM220400 32004KT P6SM BKN040=

USA.gov is the U.S. government's official web portal to all federal, state and local government web resources and services.